Station Historical Data
Daily Summary for June 10, 2012 Units:  Both    English   Metric
« Previous Day
Next Day »
Daily Weekly Monthly Yearly Custom
  High: Low: Average:
Temperature: 75.5 °F /  24.2 °C 67.0 °F /  19.4 °C 70.4 °F /  21.3 °C
Dew Point: 71.1 °F /  21.7 °C 60.3 °F /  15.7 °C 66.5 °F /  19.2 °C
Humidity: 93% 67% 88%
Wind Speed: 11.0mph /  17.7km/h - 4.2mph /  6.8km/h
Wind Gust: 15.0mph /  24.1km/h - -
Wind- - ESE
Pressure: 29.94 in /  1013.8 hPa 29.89 in /  1012.1 hPa -
Precipitation: 0.22 in /  5.59 mm    
Historical Graphs
 
 
Tabular Data for June 10, 2012
Time Temperature Dew Point Pressure Wind Wind Speed Wind Gust Humidity Rainfall Rate (Hourly) Conditions
00:00 71.1 °F /  21.7 °C 60.8 °F /  16 °C 29.92in /  1013.1hPa ESE 2.0mph /  3.2km/h 2.0mph /  3.2km/h 70% 0.00in /  0mm
00:05 71.0 °F /  21.7 °C 61.1 °F /  16.2 °C 29.92in /  1013.1hPa ESE 2.0mph /  3.2km/h 2.0mph /  3.2km/h 71% 0.00in /  0mm
00:10 70.9 °F /  21.6 °C 61.0 °F /  16.1 °C 29.92in /  1013.1hPa ESE 3.0mph /  4.8km/h 3.0mph /  4.8km/h 71% 0.00in /  0mm
00:15 71.0 °F /  21.7 °C 60.7 °F /  15.9 °C 29.92in /  1013.1hPa ESE 2.0mph /  3.2km/h 4.0mph /  6.4km/h 70% 0.00in /  0mm
00:20 71.4 °F /  21.9 °C 60.3 °F /  15.7 °C 29.92in /  1013.1hPa SSE 5.0mph /  8km/h 7.0mph /  11.3km/h 68% 0.00in /  0mm
00:25 72.0 °F /  22.2 °C 60.5 °F /  15.8 °C 29.92in /  1013.1hPa SE 6.0mph /  9.7km/h 9.0mph /  14.5km/h 67% 0.00in /  0mm
00:30 72.0 °F /  22.2 °C 60.5 °F /  15.8 °C 29.92in /  1013.1hPa SSE 3.0mph /  4.8km/h 6.0mph /  9.7km/h 67% 0.00in /  0mm
00:35 71.8 °F /  22.1 °C 60.7 °F /  15.9 °C 29.93in /  1013.4hPa SSE 6.0mph /  9.7km/h 7.0mph /  11.3km/h 68% 0.00in /  0mm
00:40 71.9 °F /  22.2 °C 60.4 °F /  15.8 °C 29.93in /  1013.4hPa SSE 6.0mph /  9.7km/h 10.0mph /  16.1km/h 67% 0.00in /  0mm
00:45 72.0 °F /  22.2 °C 60.9 °F /  16.1 °C 29.93in /  1013.4hPa SSE 8.0mph /  12.9km/h 10.0mph /  16.1km/h 68% 0.00in /  0mm
00:50 71.9 °F /  22.2 °C 61.2 °F /  16.2 °C 29.92in /  1013.1hPa South 8.0mph /  12.9km/h 11.0mph /  17.7km/h 69% 0.00in /  0mm
00:55 71.2 °F /  21.8 °C 62.9 °F /  17.2 °C 29.92in /  1013.1hPa South 3.0mph /  4.8km/h 14.0mph /  22.5km/h 75% 0.00in /  0mm
01:00 70.4 °F /  21.3 °C 62.8 °F /  17.1 °C 29.92in /  1013.1hPa South 6.0mph /  9.7km/h 9.0mph /  14.5km/h 77% 0.00in /  0mm
01:05 69.9 °F /  21.1 °C 62.4 °F /  16.9 °C 29.91in /  1012.8hPa SE 4.0mph /  6.4km/h 7.0mph /  11.3km/h 77% 0.00in /  0mm
01:10 69.7 °F /  20.9 °C 62.5 °F /  16.9 °C 29.91in /  1012.8hPa SE 4.0mph /  6.4km/h 8.0mph /  12.9km/h 78% 0.00in /  0mm
01:16 69.6 °F /  20.9 °C 62.4 °F /  16.9 °C 29.91in /  1012.8hPa ESE 2.0mph /  3.2km/h 6.0mph /  9.7km/h 78% 0.00in /  0mm
01:21 69.5 °F /  20.8 °C 62.3 °F /  16.8 °C 29.90in /  1012.4hPa SE 2.0mph /  3.2km/h 4.0mph /  6.4km/h 78% 0.00in /  0mm
01:26 69.6 °F /  20.9 °C 62.4 °F /  16.9 °C 29.90in /  1012.4hPa East 4.0mph /  6.4km/h 5.0mph /  8km/h 78% 0.00in /  0mm
01:31 69.7 °F /  20.9 °C 62.2 °F /  16.8 °C 29.90in /  1012.4hPa SE 2.0mph /  3.2km/h 5.0mph /  8km/h 77% 0.00in /  0mm
01:36 69.7 °F /  20.9 °C 62.2 °F /  16.8 °C 29.90in /  1012.4hPa ESE 2.0mph /  3.2km/h 5.0mph /  8km/h 77% 0.00in /  0mm
01:41 69.8 °F /  21 °C 62.3 °F /  16.8 °C 29.90in /  1012.4hPa ESE 1.0mph /  1.6km/h 3.0mph /  4.8km/h 77% 0.00in /  0mm
01:46 69.8 °F /  21 °C 61.9 °F /  16.6 °C 29.90in /  1012.4hPa SE 4.0mph /  6.4km/h 4.0mph /  6.4km/h 76% 0.00in /  0mm
01:51 69.9 °F /  21.1 °C 62.0 °F /  16.7 °C 29.89in /  1012.1hPa SE 2.0mph /  3.2km/h 5.0mph /  8km/h 76% 0.00in /  0mm
01:56 69.9 °F /  21.1 °C 62.0 °F /  16.7 °C 29.89in /  1012.1hPa SE 1.0mph /  1.6km/h 4.0mph /  6.4km/h 76% 0.00in /  0mm
02:01 69.8 °F /  21 °C 61.5 °F /  16.4 °C 29.89in /  1012.1hPa ESE 2.0mph /  3.2km/h 5.0mph /  8km/h 75% 0.00in /  0mm
02:06 69.7 °F /  20.9 °C 61.8 °F /  16.6 °C 29.89in /  1012.1hPa ESE 3.0mph /  4.8km/h 3.0mph /  4.8km/h 76% 0.00in /  0mm
02:11 69.6 °F /  20.9 °C 61.7 °F /  16.5 °C 29.89in /  1012.1hPa East 3.0mph /  4.8km/h 4.0mph /  6.4km/h 76% 0.00in /  0mm
02:16 69.5 °F /  20.8 °C 61.6 °F /  16.4 °C 29.89in /  1012.1hPa ESE 2.0mph /  3.2km/h 5.0mph /  8km/h 76% 0.00in /  0mm
02:21 69.5 °F /  20.8 °C 61.6 °F /  16.4 °C 29.89in /  1012.1hPa ESE 3.0mph /  4.8km/h 5.0mph /  8km/h 76% 0.00in /  0mm
02:26 69.6 °F /  20.9 °C 61.3 °F /  16.3 °C 29.89in /  1012.1hPa ESE 1.0mph /  1.6km/h 6.0mph /  9.7km/h 75% 0.00in /  0mm
02:31 69.7 °F /  20.9 °C 61.4 °F /  16.3 °C 29.89in /  1012.1hPa SE 2.0mph /  3.2km/h 3.0mph /  4.8km/h 75% 0.00in /  0mm
02:36 69.8 °F /  21 °C 61.5 °F /  16.4 °C 29.89in /  1012.1hPa SE 2.0mph /  3.2km/h 4.0mph /  6.4km/h 75% 0.00in /  0mm
02:41 69.7 °F /  20.9 °C 61.4 °F /  16.3 °C 29.89in /  1012.1hPa East 3.0mph /  4.8km/h 4.0mph /  6.4km/h 75% 0.00in /  0mm
02:46 69.7 °F /  20.9 °C 61.4 °F /  16.3 °C 29.89in /  1012.1hPa ESE 2.0mph /  3.2km/h 6.0mph /  9.7km/h 75% 0.00in /  0mm
02:51 69.8 °F /  21 °C 61.2 °F /  16.2 °C 29.89in /  1012.1hPa ESE 4.0mph /  6.4km/h 4.0mph /  6.4km/h 74% 0.00in /  0mm
02:56 69.9 °F /  21.1 °C 61.2 °F /  16.2 °C 29.89in /  1012.1hPa ESE 3.0mph /  4.8km/h 5.0mph /  8km/h 74% 0.00in /  0mm
03:01 70.0 °F /  21.1 °C 61.3 °F /  16.3 °C 29.89in /  1012.1hPa SE 3.0mph /  4.8km/h 5.0mph /  8km/h 74% 0.00in /  0mm
03:06 70.0 °F /  21.1 °C 61.0 °F /  16.1 °C 29.89in /  1012.1hPa ESE 6.0mph /  9.7km/h 7.0mph /  11.3km/h 73% 0.00in /  0mm
03:11 70.1 °F /  21.2 °C 61.0 °F /  16.1 °C 29.89in /  1012.1hPa SE 3.0mph /  4.8km/h 7.0mph /  11.3km/h 73% 0.00in /  0mm
03:16 70.2 °F /  21.2 °C 61.2 °F /  16.2 °C 29.89in /  1012.1hPa SE 5.0mph /  8km/h 7.0mph /  11.3km/h 73% 0.00in /  0mm
03:21 70.2 °F /  21.2 °C 61.5 °F /  16.4 °C 29.89in /  1012.1hPa SSE 5.0mph /  8km/h 9.0mph /  14.5km/h 74% 0.00in /  0mm
03:26 69.6 °F /  20.9 °C 62.1 °F /  16.7 °C 29.89in /  1012.1hPa ESE 5.0mph /  8km/h 15.0mph /  24.1km/h 77% 0.00in /  0mm
03:31 68.8 °F /  20.4 °C 62.0 °F /  16.7 °C 29.89in /  1012.1hPa ESE 3.0mph /  4.8km/h 9.0mph /  14.5km/h 79% 0.00in /  0mm
03:36 68.1 °F /  20.1 °C 62.4 °F /  16.9 °C 29.89in /  1012.1hPa ESE 2.0mph /  3.2km/h 4.0mph /  6.4km/h 82% 0.00in /  0mm
03:41 67.6 °F /  19.8 °C 62.3 °F /  16.8 °C 29.89in /  1012.1hPa SE 2.0mph /  3.2km/h 4.0mph /  6.4km/h 83% 0.00in /  0mm
03:46 67.4 °F /  19.7 °C 62.4 °F /  16.9 °C 29.89in /  1012.1hPa SE 1.0mph /  1.6km/h 5.0mph /  8km/h 84% 0.00in /  0mm
03:51 67.3 °F /  19.6 °C 62.0 °F /  16.7 °C 29.89in /  1012.1hPa SE 3.0mph /  4.8km/h 5.0mph /  8km/h 83% 0.00in /  0mm
03:57 67.6 °F /  19.8 °C 62.3 °F /  16.8 °C 29.89in /  1012.1hPa SE 5.0mph /  8km/h 6.0mph /  9.7km/h 83% 0.00in /  0mm
04:02 67.9 °F /  19.9 °C 62.5 °F /  16.9 °C 29.89in /  1012.1hPa ESE 3.0mph /  4.8km/h 7.0mph /  11.3km/h 83% 0.00in /  0mm
04:07 67.8 °F /  19.9 °C 62.8 °F /  17.1 °C 29.89in /  1012.1hPa ESE 2.0mph /  3.2km/h 7.0mph /  11.3km/h 84% 0.00in /  0mm
04:12 67.5 °F /  19.7 °C 62.8 °F /  17.1 °C 29.89in /  1012.1hPa ESE 4.0mph /  6.4km/h 5.0mph /  8km/h 85% 0.00in /  0mm
04:17 67.4 °F /  19.7 °C 62.7 °F /  17.1 °C 29.89in /  1012.1hPa SE 3.0mph /  4.8km/h 6.0mph /  9.7km/h 85% 0.00in /  0mm
04:22 67.3 °F /  19.6 °C 63.0 °F /  17.2 °C 29.89in /  1012.1hPa ESE 5.0mph /  8km/h 5.0mph /  8km/h 86% 0.00in /  0mm
04:27 67.2 °F /  19.6 °C 62.9 °F /  17.2 °C 29.89in /  1012.1hPa ESE 4.0mph /  6.4km/h 4.0mph /  6.4km/h 86% 0.00in /  0mm
04:32 67.2 °F /  19.6 °C 62.9 °F /  17.2 °C 29.89in /  1012.1hPa ESE 3.0mph /  4.8km/h 4.0mph /  6.4km/h 86% 0.00in /  0mm
04:37 67.1 °F /  19.5 °C 63.1 °F /  17.3 °C 29.89in /  1012.1hPa ESE 4.0mph /  6.4km/h 4.0mph /  6.4km/h 87% 0.00in /  0mm
04:42 67.0 °F /  19.4 °C 62.7 °F /  17.1 °C 29.89in /  1012.1hPa East 4.0mph /  6.4km/h 4.0mph /  6.4km/h 86% 0.00in /  0mm
04:47 67.1 °F /  19.5 °C 62.8 °F /  17.1 °C 29.89in /  1012.1hPa East 3.0mph /  4.8km/h 5.0mph /  8km/h 86% 0.00in /  0mm
04:52 67.1 °F /  19.5 °C 62.8 °F /  17.1 °C 29.89in /  1012.1hPa ESE 2.0mph /  3.2km/h 4.0mph /  6.4km/h 86% 0.00in /  0mm
04:57 67.1 °F /  19.5 °C 62.8 °F /  17.1 °C 29.89in /  1012.1hPa SE 2.0mph /  3.2km/h 6.0mph /  9.7km/h 86% 0.00in /  0mm
05:02 67.1 °F /  19.5 °C 62.8 °F /  17.1 °C 29.89in /  1012.1hPa ESE 3.0mph /  4.8km/h 5.0mph /  8km/h 86% 0.00in /  0mm
05:07 67.2 °F /  19.6 °C 63.2 °F /  17.3 °C 29.89in /  1012.1hPa SE 4.0mph /  6.4km/h 5.0mph /  8km/h 87% 0.00in /  0mm
05:12 67.2 °F /  19.6 °C 63.2 °F /  17.3 °C 29.89in /  1012.1hPa ESE 4.0mph /  6.4km/h 5.0mph /  8km/h 87% 0.00in /  0mm
05:17 67.3 °F /  19.6 °C 63.3 °F /  17.4 °C 29.89in /  1012.1hPa SE 2.0mph /  3.2km/h 9.0mph /  14.5km/h 87% 0.00in /  0mm
05:22 67.3 °F /  19.6 °C 63.3 °F /  17.4 °C 29.89in /  1012.1hPa ESE 2.0mph /  3.2km/h 6.0mph /  9.7km/h 87% 0.00in /  0mm
05:27 67.3 °F /  19.6 °C 63.6 °F /  17.6 °C 29.89in /  1012.1hPa East 5.0mph /  8km/h 5.0mph /  8km/h 88% 0.00in /  0mm
05:32 67.4 °F /  19.7 °C 63.7 °F /  17.6 °C 29.89in /  1012.1hPa ESE 4.0mph /  6.4km/h 5.0mph /  8km/h 88% 0.00in /  0mm
05:37 67.4 °F /  19.7 °C 63.7 °F /  17.6 °C 29.90in /  1012.4hPa ESE 4.0mph /  6.4km/h 6.0mph /  9.7km/h 88% 0.00in /  0mm
05:42 67.5 °F /  19.7 °C 63.8 °F /  17.7 °C 29.90in /  1012.4hPa ESE 3.0mph /  4.8km/h 6.0mph /  9.7km/h 88% 0.00in /  0mm
05:47 67.5 °F /  19.7 °C 63.8 °F /  17.7 °C 29.90in /  1012.4hPa SE 4.0mph /  6.4km/h 6.0mph /  9.7km/h 88% 0.00in /  0mm
05:52 67.6 °F /  19.8 °C 63.9 °F /  17.7 °C 29.90in /  1012.4hPa ESE 3.0mph /  4.8km/h 6.0mph /  9.7km/h 88% 0.00in /  0mm
05:57 67.7 °F /  19.8 °C 64.0 °F /  17.8 °C 29.90in /  1012.4hPa East 4.0mph /  6.4km/h 6.0mph /  9.7km/h 88% 0.00in /  0mm
06:02 67.8 °F /  19.9 °C 64.1 °F /  17.8 °C 29.90in /  1012.4hPa ESE 4.0mph /  6.4km/h 6.0mph /  9.7km/h 88% 0.00in /  0mm
06:07 67.9 °F /  19.9 °C 64.2 °F /  17.9 °C 29.90in /  1012.4hPa ESE 10.0mph /  16.1km/h 10.0mph /  16.1km/h 88% 0.00in /  0mm
06:12 68.0 °F /  20 °C 64.3 °F /  17.9 °C 29.90in /  1012.4hPa SE 6.0mph /  9.7km/h 8.0mph /  12.9km/h 88% 0.00in /  0mm
06:17 68.0 °F /  20 °C 64.3 °F /  17.9 °C 29.90in /  1012.4hPa ESE 6.0mph /  9.7km/h 9.0mph /  14.5km/h 88% 0.00in /  0mm
06:22 67.9 °F /  19.9 °C 64.5 °F /  18.1 °C 29.90in /  1012.4hPa East 6.0mph /  9.7km/h 8.0mph /  12.9km/h 89% 0.00in /  0mm
06:27 67.9 °F /  19.9 °C 64.5 °F /  18.1 °C 29.90in /  1012.4hPa East 7.0mph /  11.3km/h 7.0mph /  11.3km/h 89% 0.00in /  0mm
06:32 68.0 °F /  20 °C 64.6 °F /  18.1 °C 29.91in /  1012.8hPa SSE 4.0mph /  6.4km/h 8.0mph /  12.9km/h 89% 0.00in /  0mm
06:37 68.0 °F /  20 °C 64.6 °F /  18.1 °C 29.91in /  1012.8hPa ESE 7.0mph /  11.3km/h 8.0mph /  12.9km/h 89% 0.00in /  0mm
06:42 68.0 °F /  20 °C 64.6 °F /  18.1 °C 29.91in /  1012.8hPa SE 5.0mph /  8km/h 7.0mph /  11.3km/h 89% 0.00in /  0mm
06:47 67.9 °F /  19.9 °C 64.5 °F /  18.1 °C 29.91in /  1012.8hPa East 4.0mph /  6.4km/h 6.0mph /  9.7km/h 89% 0.00in /  0mm
06:52 67.9 °F /  19.9 °C 64.9 °F /  18.3 °C 29.91in /  1012.8hPa ESE 6.0mph /  9.7km/h 6.0mph /  9.7km/h 90% 0.00in /  0mm
06:57 67.9 °F /  19.9 °C 64.9 °F /  18.3 °C 29.91in /  1012.8hPa East 7.0mph /  11.3km/h 8.0mph /  12.9km/h 90% 0.00in /  0mm
07:03 67.9 °F /  19.9 °C 64.9 °F /  18.3 °C 29.91in /  1012.8hPa ESE 4.0mph /  6.4km/h 7.0mph /  11.3km/h 90% 0.00in /  0mm
07:08 67.9 °F /  19.9 °C 64.9 °F /  18.3 °C 29.91in /  1012.8hPa ESE 3.0mph /  4.8km/h 7.0mph /  11.3km/h 90% 0.00in /  0mm
07:13 67.9 °F /  19.9 °C 64.9 °F /  18.3 °C 29.91in /  1012.8hPa East 8.0mph /  12.9km/h 8.0mph /  12.9km/h 90% 0.00in /  0mm
07:18 67.8 °F /  19.9 °C 64.8 °F /  18.2 °C 29.91in /  1012.8hPa ESE 3.0mph /  4.8km/h 7.0mph /  11.3km/h 90% 0.00in /  0mm
07:23 67.8 °F /  19.9 °C 64.8 °F /  18.2 °C 29.91in /  1012.8hPa East 6.0mph /  9.7km/h 7.0mph /  11.3km/h 90% 0.00in /  0mm
07:28 67.8 °F /  19.9 °C 65.1 °F /  18.4 °C 29.91in /  1012.8hPa East 6.0mph /  9.7km/h 7.0mph /  11.3km/h 91% 0.00in /  0mm
07:33 67.9 °F /  19.9 °C 65.2 °F /  18.4 °C 29.92in /  1013.1hPa ESE 5.0mph /  8km/h 6.0mph /  9.7km/h 91% 0.00in /  0mm
07:38 67.8 °F /  19.9 °C 65.1 °F /  18.4 °C 29.92in /  1013.1hPa SE 6.0mph /  9.7km/h 7.0mph /  11.3km/h 91% 0.00in /  0mm
07:43 67.8 °F /  19.9 °C 65.1 °F /  18.4 °C 29.92in /  1013.1hPa East 3.0mph /  4.8km/h 8.0mph /  12.9km/h 91% 0.00in /  0mm
07:48 67.7 °F /  19.8 °C 65.0 °F /  18.3 °C 29.92in /  1013.1hPa ENE 5.0mph /  8km/h 7.0mph /  11.3km/h 91% 0.00in /  0mm
07:53 67.7 °F /  19.8 °C 65.0 °F /  18.3 °C 29.92in /  1013.1hPa ENE 3.0mph /  4.8km/h 8.0mph /  12.9km/h 91% 0.00in /  0mm
07:58 67.7 °F /  19.8 °C 65.0 °F /  18.3 °C 29.92in /  1013.1hPa ESE 5.0mph /  8km/h 7.0mph /  11.3km/h 91% 0.00in /  0mm
08:03 67.7 °F /  19.8 °C 65.0 °F /  18.3 °C 29.92in /  1013.1hPa SE 4.0mph /  6.4km/h 8.0mph /  12.9km/h 91% 0.00in /  0mm
08:08 67.6 °F /  19.8 °C 64.9 °F /  18.3 °C 29.92in /  1013.1hPa ESE 3.0mph /  4.8km/h 7.0mph /  11.3km/h 91% 0.00in /  0mm
08:13 67.7 °F /  19.8 °C 65.0 °F /  18.3 °C 29.92in /  1013.1hPa SE 3.0mph /  4.8km/h 9.0mph /  14.5km/h 91% 0.00in /  0mm
08:18 67.7 °F /  19.8 °C 65.3 °F /  18.5 °C 29.92in /  1013.1hPa ESE 5.0mph /  8km/h 6.0mph /  9.7km/h 92% 0.00in /  0mm
08:23 67.7 °F /  19.8 °C 65.3 °F /  18.5 °C 29.92in /  1013.1hPa SE 3.0mph /  4.8km/h 8.0mph /  12.9km/h 92% 0.00in /  0mm
08:28 67.7 °F /  19.8 °C 65.3 °F /  18.5 °C 29.92in /  1013.1hPa SE 3.0mph /  4.8km/h 8.0mph /  12.9km/h 92% 0.00in /  0mm
08:33 67.7 °F /  19.8 °C 65.3 °F /  18.5 °C 29.92in /  1013.1hPa East 4.0mph /  6.4km/h 7.0mph /  11.3km/h 92% 0.00in /  0mm
08:38 67.7 °F /  19.8 °C 65.3 °F /  18.5 °C 29.92in /  1013.1hPa East 9.0mph /  14.5km/h 9.0mph /  14.5km/h 92% 0.00in /  0mm
08:43 67.7 °F /  19.8 °C 65.3 °F /  18.5 °C 29.93in /  1013.4hPa ENE 2.0mph /  3.2km/h 7.0mph /  11.3km/h 92% 0.00in /  0mm
08:48 67.7 °F /  19.8 °C 65.3 °F /  18.5 °C 29.93in /  1013.4hPa East 5.0mph /  8km/h 7.0mph /  11.3km/h 92% 0.00in /  0mm
08:53 67.8 °F /  19.9 °C 65.4 °F /  18.6 °C 29.93in /  1013.4hPa ENE 3.0mph /  4.8km/h 7.0mph /  11.3km/h 92% 0.00in /  0mm
08:58 67.9 °F /  19.9 °C 65.5 °F /  18.6 °C 29.93in /  1013.4hPa ENE 11.0mph /  17.7km/h 11.0mph /  17.7km/h 92% 0.00in /  0mm
09:03 67.9 °F /  19.9 °C 65.5 °F /  18.6 °C 29.93in /  1013.4hPa East 9.0mph /  14.5km/h 9.0mph /  14.5km/h 92% 0.00in /  0mm
09:08 67.9 °F /  19.9 °C 65.5 °F /  18.6 °C 29.93in /  1013.4hPa SE 2.0mph /  3.2km/h 8.0mph /  12.9km/h 92% 0.00in /  0mm
09:13 67.9 °F /  19.9 °C 65.5 °F /  18.6 °C 29.93in /  1013.4hPa ESE 4.0mph /  6.4km/h 7.0mph /  11.3km/h 92% 0.00in /  0mm
09:18 67.9 °F /  19.9 °C 65.8 °F /  18.8 °C 29.93in /  1013.4hPa ESE 4.0mph /  6.4km/h 6.0mph /  9.7km/h 93% 0.00in /  0mm
09:23 67.8 °F /  19.9 °C 65.7 °F /  18.7 °C 29.94in /  1013.8hPa ESE 4.0mph /  6.4km/h 6.0mph /  9.7km/h 93% 0.00in /  0mm
09:28 67.8 °F /  19.9 °C 65.7 °F /  18.7 °C 29.94in /  1013.8hPa ESE 3.0mph /  4.8km/h 6.0mph /  9.7km/h 93% 0.00in /  0mm
09:33 67.8 °F /  19.9 °C 65.7 °F /  18.7 °C 29.93in /  1013.4hPa ESE 4.0mph /  6.4km/h 7.0mph /  11.3km/h 93% 0.00in /  0mm
09:38 67.7 °F /  19.8 °C 65.6 °F /  18.7 °C 29.94in /  1013.8hPa ESE 6.0mph /  9.7km/h 8.0mph /  12.9km/h 93% 0.00in /  0mm
09:43 67.7 °F /  19.8 °C 65.6 °F /  18.7 °C 29.93in /  1013.4hPa SE 5.0mph /  8km/h 7.0mph /  11.3km/h 93% 0.00in /  0mm
09:48 67.6 °F /  19.8 °C 65.5 °F /  18.6 °C 29.93in /  1013.4hPa SE 4.0mph /  6.4km/h 7.0mph /  11.3km/h 93% 0.00in /  0mm
09:53 67.6 °F /  19.8 °C 65.5 °F /  18.6 °C 29.93in /  1013.4hPa ESE 3.0mph /  4.8km/h 6.0mph /  9.7km/h 93% 0.00in /  0mm
09:58 67.5 °F /  19.7 °C 65.4 °F /  18.6 °C 29.93in /  1013.4hPa ESE 7.0mph /  11.3km/h 9.0mph /  14.5km/h 93% 0.00in /  0mm
10:03 67.5 °F /  19.7 °C 65.4 °F /  18.6 °C 29.93in /  1013.4hPa East 7.0mph /  11.3km/h 7.0mph /  11.3km/h 93% 0.00in /  0mm
10:08 67.6 °F /  19.8 °C 65.5 °F /  18.6 °C 29.94in /  1013.8hPa East 3.0mph /  4.8km/h 6.0mph /  9.7km/h 93% 0.00in /  0mm
10:13 67.7 °F /  19.8 °C 65.6 °F /  18.7 °C 29.93in /  1013.4hPa East 4.0mph /  6.4km/h 6.0mph /  9.7km/h 93% 0.00in /  0mm
10:18 67.7 °F /  19.8 °C 65.6 °F /  18.7 °C 29.93in /  1013.4hPa ESE 6.0mph /  9.7km/h 8.0mph /  12.9km/h 93% 0.00in /  0mm
10:23 67.8 °F /  19.9 °C 65.7 °F /  18.7 °C 29.94in /  1013.8hPa East 5.0mph /  8km/h 8.0mph /  12.9km/h 93% 0.00in /  0mm
10:28 67.9 °F /  19.9 °C 65.8 °F /  18.8 °C 29.94in /  1013.8hPa SE 3.0mph /  4.8km/h 7.0mph /  11.3km/h 93% 0.00in /  0mm
10:33 68.0 °F /  20 °C 65.9 °F /  18.8 °C 29.94in /  1013.8hPa SE 4.0mph /  6.4km/h 7.0mph /  11.3km/h 93% 0.00in /  0mm
10:38 67.9 °F /  19.9 °C 65.8 °F /  18.8 °C 29.94in /  1013.8hPa SE 4.0mph /  6.4km/h 10.0mph /  16.1km/h 93% 0.00in /  0mm
10:43 68.0 °F /  20 °C 65.9 °F /  18.8 °C 29.94in /  1013.8hPa SE 5.0mph /  8km/h 9.0mph /  14.5km/h 93% 0.00in /  0mm
10:48 68.1 °F /  20.1 °C 66.0 °F /  18.9 °C 29.93in /  1013.4hPa SE 5.0mph /  8km/h 7.0mph /  11.3km/h 93% 0.00in /  0mm
10:53 68.2 °F /  20.1 °C 66.1 °F /  18.9 °C 29.94in /  1013.8hPa ESE 11.0mph /  17.7km/h 11.0mph /  17.7km/h 93% 0.00in /  0mm
10:58 68.3 °F /  20.2 °C 66.2 °F /  19 °C 29.94in /  1013.8hPa ESE 6.0mph /  9.7km/h 10.0mph /  16.1km/h 93% 0.00in /  0mm
11:03 68.4 °F /  20.2 °C 66.3 °F /  19.1 °C 29.94in /  1013.8hPa SE 4.0mph /  6.4km/h 10.0mph /  16.1km/h 93% 0.00in /  0mm
11:09 68.9 °F /  20.5 °C 66.8 °F /  19.3 °C 29.93in /  1013.4hPa East 7.0mph /  11.3km/h 8.0mph /  12.9km/h 93% 0.00in /  0mm
11:14 69.0 °F /  20.6 °C 66.6 °F /  19.2 °C 29.94in /  1013.8hPa ESE 6.0mph /  9.7km/h 10.0mph /  16.1km/h 92% 0.00in /  0mm
11:19 69.2 °F /  20.7 °C 66.8 °F /  19.3 °C 29.93in /  1013.4hPa ESE 4.0mph /  6.4km/h 11.0mph /  17.7km/h 92% 0.00in /  0mm
11:24 69.5 °F /  20.8 °C 67.1 °F /  19.5 °C 29.93in /  1013.4hPa ESE 9.0mph /  14.5km/h 10.0mph /  16.1km/h 92% 0.00in /  0mm
11:29 69.9 °F /  21.1 °C 67.5 °F /  19.7 °C 29.93in /  1013.4hPa SE 4.0mph /  6.4km/h 8.0mph /  12.9km/h 92% 0.00in /  0mm
11:34 70.5 °F /  21.4 °C 68.1 °F /  20.1 °C 29.93in /  1013.4hPa East 4.0mph /  6.4km/h 8.0mph /  12.9km/h 92% 0.00in /  0mm
11:39 70.8 °F /  21.6 °C 68.1 °F /  20.1 °C 29.93in /  1013.4hPa East 8.0mph /  12.9km/h 8.0mph /  12.9km/h 91% 0.00in /  0mm
11:44 71.0 °F /  21.7 °C 67.9 °F /  19.9 °C 29.93in /  1013.4hPa SE 7.0mph /  11.3km/h 9.0mph /  14.5km/h 90% 0.00in /  0mm
11:49 71.0 °F /  21.7 °C 67.9 °F /  19.9 °C 29.93in /  1013.4hPa ESE 6.0mph /  9.7km/h 8.0mph /  12.9km/h 90% 0.00in /  0mm
11:54 71.2 °F /  21.8 °C 68.1 °F /  20.1 °C 29.93in /  1013.4hPa ESE 8.0mph /  12.9km/h 9.0mph /  14.5km/h 90% 0.00in /  0mm
11:59 71.7 °F /  22.1 °C 68.9 °F /  20.5 °C 29.93in /  1013.4hPa SE 8.0mph /  12.9km/h 10.0mph /  16.1km/h 91% 0.00in /  0mm
12:04 71.5 °F /  21.9 °C 68.4 °F /  20.2 °C 29.93in /  1013.4hPa ESE 7.0mph /  11.3km/h 10.0mph /  16.1km/h 90% 0.00in /  0mm
12:09 71.3 °F /  21.8 °C 67.9 °F /  19.9 °C 29.93in /  1013.4hPa SE 8.0mph /  12.9km/h 10.0mph /  16.1km/h 89% 0.00in /  0mm
12:14 71.2 °F /  21.8 °C 68.1 °F /  20.1 °C 29.93in /  1013.4hPa ESE 8.0mph /  12.9km/h 8.0mph /  12.9km/h 90% 0.00in /  0mm
12:19 71.6 °F /  22 °C 68.5 °F /  20.3 °C 29.93in /  1013.4hPa SE 5.0mph /  8km/h 7.0mph /  11.3km/h 90% 0.00in /  0mm
12:24 71.6 °F /  22 °C 68.2 °F /  20.1 °C 29.93in /  1013.4hPa ESE 6.0mph /  9.7km/h 10.0mph /  16.1km/h 89% 0.00in /  0mm
12:29 71.6 °F /  22 °C 68.5 °F /  20.3 °C 29.93in /  1013.4hPa SE 10.0mph /  16.1km/h 11.0mph /  17.7km/h 90% 0.00in /  0mm
12:34 72.0 °F /  22.2 °C 68.9 °F /  20.5 °C 29.93in /  1013.4hPa SE 6.0mph /  9.7km/h 11.0mph /  17.7km/h 90% 0.00in /  0mm
12:39 72.7 °F /  22.6 °C 68.9 °F /  20.5 °C 29.93in /  1013.4hPa SE 11.0mph /  17.7km/h 11.0mph /  17.7km/h 88% 0.00in /  0mm
12:44 72.9 °F /  22.7 °C 69.1 °F /  20.6 °C 29.93in /  1013.4hPa ESE 4.0mph /  6.4km/h 8.0mph /  12.9km/h 88% 0.00in /  0mm
12:49 72.9 °F /  22.7 °C 69.1 °F /  20.6 °C 29.93in /  1013.4hPa East 2.0mph /  3.2km/h 8.0mph /  12.9km/h 88% 0.00in /  0mm
12:54 73.1 °F /  22.8 °C 69.3 °F /  20.7 °C 29.93in /  1013.4hPa East 4.0mph /  6.4km/h 8.0mph /  12.9km/h 88% 0.00in /  0mm
12:59 73.0 °F /  22.8 °C 69.2 °F /  20.7 °C 29.93in /  1013.4hPa ESE 7.0mph /  11.3km/h 7.0mph /  11.3km/h 88% 0.00in /  0mm
13:04 72.9 °F /  22.7 °C 69.1 °F /  20.6 °C 29.93in /  1013.4hPa East 3.0mph /  4.8km/h 7.0mph /  11.3km/h 88% 0.00in /  0mm
13:09 73.0 °F /  22.8 °C 69.2 °F /  20.7 °C 29.93in /  1013.4hPa SE 5.0mph /  8km/h 9.0mph /  14.5km/h 88% 0.00in /  0mm
13:14 73.4 °F /  23 °C 69.6 °F /  20.9 °C 29.92in /  1013.1hPa SE 8.0mph /  12.9km/h 9.0mph /  14.5km/h 88% 0.00in /  0mm
13:19 73.4 °F /  23 °C 69.3 °F /  20.7 °C 29.92in /  1013.1hPa SE 8.0mph /  12.9km/h 9.0mph /  14.5km/h 87% 0.00in /  0mm
13:24 73.3 °F /  22.9 °C 69.5 °F /  20.8 °C 29.92in /  1013.1hPa SE 5.0mph /  8km/h 9.0mph /  14.5km/h 88% 0.00in /  0mm
13:29 73.3 °F /  22.9 °C 69.5 °F /  20.8 °C 29.92in /  1013.1hPa ESE 10.0mph /  16.1km/h 10.0mph /  16.1km/h 88% 0.00in /  0mm
13:34 73.0 °F /  22.8 °C 69.2 °F /  20.7 °C 29.92in /  1013.1hPa SE 3.0mph /  4.8km/h 9.0mph /  14.5km/h 88% 0.00in /  0mm
13:39 72.9 °F /  22.7 °C 69.1 °F /  20.6 °C 29.93in /  1013.4hPa SE 7.0mph /  11.3km/h 11.0mph /  17.7km/h 88% 0.00in /  0mm
13:44 72.8 °F /  22.7 °C 69.0 °F /  20.6 °C 29.92in /  1013.1hPa SE 7.0mph /  11.3km/h 10.0mph /  16.1km/h 88% 0.00in /  0mm
13:50 72.7 °F /  22.6 °C 68.9 °F /  20.5 °C 29.92in /  1013.1hPa ESE 6.0mph /  9.7km/h 9.0mph /  14.5km/h 88% 0.00in /  0mm
13:55 72.7 °F /  22.6 °C 68.9 °F /  20.5 °C 29.92in /  1013.1hPa East 8.0mph /  12.9km/h 10.0mph /  16.1km/h 88% 0.00in /  0mm
14:00 72.4 °F /  22.4 °C 69.0 °F /  20.6 °C 29.92in /  1013.1hPa ESE 9.0mph /  14.5km/h 11.0mph /  17.7km/h 89% 0.00in /  0mm
14:05 72.1 °F /  22.3 °C 69.0 °F /  20.6 °C 29.93in /  1013.4hPa ESE 9.0mph /  14.5km/h 11.0mph /  17.7km/h 90% 0.00in /  0mm
14:10 72.0 °F /  22.2 °C 69.2 °F /  20.7 °C 29.92in /  1013.1hPa ESE 4.0mph /  6.4km/h 8.0mph /  12.9km/h 91% 0.00in /  0mm
14:15 72.1 °F /  22.3 °C 69.0 °F /  20.6 °C 29.92in /  1013.1hPa SE 8.0mph /  12.9km/h 10.0mph /  16.1km/h 90% 0.00in /  0mm
14:20 72.3 °F /  22.4 °C 69.2 °F /  20.7 °C 29.92in /  1013.1hPa SE 6.0mph /  9.7km/h 9.0mph /  14.5km/h 90% 0.00in /  0mm
14:25 73.1 °F /  22.8 °C 70.0 °F /  21.1 °C 29.92in /  1013.1hPa ESE 4.0mph /  6.4km/h 8.0mph /  12.9km/h 90% 0.00in /  0mm
14:30 73.3 °F /  22.9 °C 69.9 °F /  21.1 °C 29.92in /  1013.1hPa East 6.0mph /  9.7km/h 8.0mph /  12.9km/h 89% 0.00in /  0mm
14:35 73.2 °F /  22.9 °C 69.4 °F /  20.8 °C 29.92in /  1013.1hPa ESE 4.0mph /  6.4km/h 8.0mph /  12.9km/h 88% 0.00in /  0mm
14:40 73.2 °F /  22.9 °C 69.8 °F /  21 °C 29.92in /  1013.1hPa ESE 5.0mph /  8km/h 8.0mph /  12.9km/h 89% 0.00in /  0mm
14:45 72.8 °F /  22.7 °C 69.4 °F /  20.8 °C 29.91in /  1012.8hPa ESE 2.0mph /  3.2km/h 11.0mph /  17.7km/h 89% 0.00in /  0mm
14:50 72.7 °F /  22.6 °C 69.6 °F /  20.9 °C 29.92in /  1013.1hPa ESE 8.0mph /  12.9km/h 8.0mph /  12.9km/h 90% 0.00in /  0mm
14:55 72.7 °F /  22.6 °C 69.6 °F /  20.9 °C 29.92in /  1013.1hPa ESE 6.0mph /  9.7km/h 9.0mph /  14.5km/h 90% 0.00in /  0mm
15:00 73.0 °F /  22.8 °C 69.6 °F /  20.9 °C 29.92in /  1013.1hPa East 8.0mph /  12.9km/h 10.0mph /  16.1km/h 89% 0.00in /  0mm
15:05 73.1 °F /  22.8 °C 69.7 °F /  20.9 °C 29.91in /  1012.8hPa ESE 3.0mph /  4.8km/h 11.0mph /  17.7km/h 89% 0.00in /  0mm
15:10 73.6 °F /  23.1 °C 70.2 °F /  21.2 °C 29.91in /  1012.8hPa East 6.0mph /  9.7km/h 11.0mph /  17.7km/h 89% 0.00in /  0mm
15:15 74.2 °F /  23.4 °C 70.4 °F /  21.3 °C 29.91in /  1012.8hPa ESE 7.0mph /  11.3km/h 12.0mph /  19.3km/h 88% 0.00in /  0mm
15:20 74.5 °F /  23.6 °C 70.4 °F /  21.3 °C 29.91in /  1012.8hPa ESE 8.0mph /  12.9km/h 11.0mph /  17.7km/h 87% 0.00in /  0mm
15:25 75.1 °F /  23.9 °C 70.6 °F /  21.4 °C 29.90in /  1012.4hPa ESE 2.0mph /  3.2km/h 8.0mph /  12.9km/h 86% 0.00in /  0mm
15:30 75.5 °F /  24.2 °C 71.0 °F /  21.7 °C 29.90in /  1012.4hPa SE 7.0mph /  11.3km/h 8.0mph /  12.9km/h 86% 0.00in /  0mm
15:35 75.2 °F /  24 °C 70.4 °F /  21.3 °C 29.90in /  1012.4hPa ENE 5.0mph /  8km/h 10.0mph /  16.1km/h 85% 0.00in /  0mm
15:40 75.2 °F /  24 °C 70.4 °F /  21.3 °C 29.90in /  1012.4hPa ENE 7.0mph /  11.3km/h 12.0mph /  19.3km/h 85% 0.00in /  0mm
15:45 75.3 °F /  24.1 °C 70.5 °F /  21.4 °C 29.90in /  1012.4hPa ENE 6.0mph /  9.7km/h 8.0mph /  12.9km/h 85% 0.00in /  0mm
15:50 75.2 °F /  24 °C 70.7 °F /  21.5 °C 29.90in /  1012.4hPa SSE 7.0mph /  11.3km/h 10.0mph /  16.1km/h 86% 0.00in /  0mm
15:55 75.3 °F /  24.1 °C 70.8 °F /  21.6 °C 29.90in /  1012.4hPa ESE 6.0mph /  9.7km/h 9.0mph /  14.5km/h 86% 0.00in /  0mm
16:00 75.2 °F /  24 °C 70.7 °F /  21.5 °C 29.90in /  1012.4hPa ESE 7.0mph /  11.3km/h 9.0mph /  14.5km/h 86% 0.00in /  0mm
16:05 75.0 °F /  23.9 °C 70.9 °F /  21.6 °C 29.90in /  1012.4hPa ENE 3.0mph /  4.8km/h 9.0mph /  14.5km/h 87% 0.00in /  0mm
16:10 75.1 °F /  23.9 °C 70.6 °F /  21.4 °C 29.90in /  1012.4hPa ESE 4.0mph /  6.4km/h 8.0mph /  12.9km/h 86% 0.00in /  0mm
16:15 75.2 °F /  24 °C 71.1 °F /  21.7 °C 29.90in /  1012.4hPa ESE 9.0mph /  14.5km/h 9.0mph /  14.5km/h 87% 0.00in /  0mm
16:20 74.9 °F /  23.8 °C 70.4 °F /  21.3 °C 29.90in /  1012.4hPa East 5.0mph /  8km/h 7.0mph /  11.3km/h 86% 0.00in /  0mm
16:25 74.6 °F /  23.7 °C 70.5 °F /  21.4 °C 29.90in /  1012.4hPa ENE 5.0mph /  8km/h 6.0mph /  9.7km/h 87% 0.00in /  0mm
16:31 74.4 °F /  23.6 °C 70.6 °F /  21.4 °C 29.90in /  1012.4hPa East 2.0mph /  3.2km/h 8.0mph /  12.9km/h 88% 0.00in /  0mm
16:36 74.2 °F /  23.4 °C 70.8 °F /  21.6 °C 29.90in /  1012.4hPa East 2.0mph /  3.2km/h 6.0mph /  9.7km/h 89% 0.00in /  0mm
16:41 74.0 °F /  23.3 °C 70.9 °F /  21.6 °C 29.90in /  1012.4hPa East 5.0mph /  8km/h 7.0mph /  11.3km/h 90% 0.25in /  6.35mm
16:46 73.4 °F /  23 °C 70.6 °F /  21.4 °C 29.90in /  1012.4hPa ESE 4.0mph /  6.4km/h 6.0mph /  9.7km/h 91% 0.14in /  3.56mm
16:51 73.1 °F /  22.8 °C 70.3 °F /  21.3 °C 29.90in /  1012.4hPa ESE 4.0mph /  6.4km/h 6.0mph /  9.7km/h 91% 0.11in /  2.79mm
16:56 72.7 °F /  22.6 °C 70.2 °F /  21.2 °C 29.90in /  1012.4hPa East 6.0mph /  9.7km/h 6.0mph /  9.7km/h 92% 0.08in /  2.03mm
17:01 72.4 °F /  22.4 °C 69.9 °F /  21.1 °C 29.90in /  1012.4hPa ESE 1.0mph /  1.6km/h 5.0mph /  8km/h 92% 0.12in /  3.05mm
17:06 72.3 °F /  22.4 °C 69.8 °F /  21 °C 29.90in /  1012.4hPa ESE 5.0mph /  8km/h 5.0mph /  8km/h 92% 0.19in /  4.83mm
17:11 72.2 °F /  22.3 °C 69.8 °F /  21 °C 29.90in /  1012.4hPa SE 2.0mph /  3.2km/h 7.0mph /  11.3km/h 92% 0.25in /  6.35mm
17:16 72.0 °F /  22.2 °C 69.6 °F /  20.9 °C 29.89in /  1012.1hPa ESE 2.0mph /  3.2km/h 6.0mph /  9.7km/h 92% 0.22in /  5.59mm
17:21 72.0 °F /  22.2 °C 69.6 °F /  20.9 °C 29.89in /  1012.1hPa East 2.0mph /  3.2km/h 7.0mph /  11.3km/h 92% 0.19in /  4.83mm
17:26 71.9 °F /  22.2 °C 69.4 °F /  20.8 °C 29.89in /  1012.1hPa ESE 6.0mph /  9.7km/h 9.0mph /  14.5km/h 92% 0.14in /  3.56mm
17:31 71.8 °F /  22.1 °C 69.3 °F /  20.7 °C 29.90in /  1012.4hPa East 5.0mph /  8km/h 9.0mph /  14.5km/h 92% 0.08in /  2.03mm
17:36 71.8 °F /  22.1 °C 69.3 °F /  20.7 °C 29.90in /  1012.4hPa ESE 4.0mph /  6.4km/h 6.0mph /  9.7km/h 92% 0.05in /  1.27mm
17:41 71.7 °F /  22.1 °C 69.3 °F /  20.7 °C 29.90in /  1012.4hPa East 5.0mph /  8km/h 9.0mph /  14.5km/h 92% 0.04in /  1.02mm
17:46 71.6 °F /  22 °C 69.2 °F /  20.7 °C 29.90in /  1012.4hPa SE 3.0mph /  4.8km/h 7.0mph /  11.3km/h 92% 0.04in /  1.02mm
17:51 71.6 °F /  22 °C 69.2 °F /  20.7 °C 29.90in /  1012.4hPa ESE 5.0mph /  8km/h 6.0mph /  9.7km/h 92% 0.04in /  1.02mm
17:56 71.6 °F /  22 °C 69.2 °F /  20.7 °C 29.90in /  1012.4hPa ESE 2.0mph /  3.2km/h 4.0mph /  6.4km/h 92% 0.04in /  1.02mm
18:01 71.7 °F /  22.1 °C 69.3 °F /  20.7 °C 29.90in /  1012.4hPa East 3.0mph /  4.8km/h 7.0mph /  11.3km/h 92% 0.00in /  0mm
18:06 71.6 °F /  22 °C 69.2 °F /  20.7 °C 29.90in /  1012.4hPa East 5.0mph /  8km/h 8.0mph /  12.9km/h 92% 0.00in /  0mm
18:11 71.7 °F /  22.1 °C 69.3 °F /  20.7 °C 29.90in /  1012.4hPa ESE 4.0mph /  6.4km/h 7.0mph /  11.3km/h 92% 0.00in /  0mm
18:16 71.8 °F /  22.1 °C 69.3 °F /  20.7 °C 29.90in /  1012.4hPa ENE 4.0mph /  6.4km/h 5.0mph /  8km/h 92% 0.00in /  0mm
18:22 71.9 °F /  22.2 °C 69.4 °F /  20.8 °C 29.90in /  1012.4hPa East 3.0mph /  4.8km/h 7.0mph /  11.3km/h 92% 0.00in /  0mm
18:27 71.9 °F /  22.2 °C 69.4 °F /  20.8 °C 29.90in /  1012.4hPa East 4.0mph /  6.4km/h 6.0mph /  9.7km/h 92% 0.00in /  0mm
18:32 72.0 °F /  22.2 °C 69.6 °F /  20.9 °C 29.90in /  1012.4hPa SE 3.0mph /  4.8km/h 6.0mph /  9.7km/h 92% 0.00in /  0mm
18:37 72.2 °F /  22.3 °C 69.8 °F /  21 °C 29.90in /  1012.4hPa ENE 4.0mph /  6.4km/h 5.0mph /  8km/h 92% 0.00in /  0mm
18:42 72.3 °F /  22.4 °C 69.8 °F /  21 °C 29.90in /  1012.4hPa ESE 3.0mph /  4.8km/h 5.0mph /  8km/h 92% 0.00in /  0mm
18:47 72.4 °F /  22.4 °C 69.9 °F /  21.1 °C 29.90in /  1012.4hPa East 4.0mph /  6.4km/h 6.0mph /  9.7km/h 92% 0.00in /  0mm
18:52 72.3 °F /  22.4 °C 69.8 °F /  21 °C 29.90in /  1012.4hPa ESE 2.0mph /  3.2km/h 6.0mph /  9.7km/h 92% 0.00in /  0mm
18:57 72.4 °F /  22.4 °C 69.9 °F /  21.1 °C 29.90in /  1012.4hPa ENE 6.0mph /  9.7km/h 8.0mph /  12.9km/h 92% 0.00in /  0mm
19:02 72.4 °F /  22.4 °C 69.9 °F /  21.1 °C 29.90in /  1012.4hPa ESE 2.0mph /  3.2km/h 3.0mph /  4.8km/h 92% 0.00in /  0mm
19:07 72.5 °F /  22.5 °C 70.1 °F /  21.2 °C 29.89in /  1012.1hPa ESE 5.0mph /  8km/h 5.0mph /  8km/h 92% 0.00in /  0mm
19:12 72.5 °F /  22.5 °C 70.1 °F /  21.2 °C 29.89in /  1012.1hPa East 3.0mph /  4.8km/h 6.0mph /  9.7km/h 92% 0.00in /  0mm
19:17 72.5 °F /  22.5 °C 70.1 °F /  21.2 °C 29.89in /  1012.1hPa ESE 4.0mph /  6.4km/h 7.0mph /  11.3km/h 92% 0.00in /  0mm
19:22 72.5 °F /  22.5 °C 70.1 °F /  21.2 °C 29.89in /  1012.1hPa ENE 3.0mph /  4.8km/h 4.0mph /  6.4km/h 92% 0.00in /  0mm
19:27 72.5 °F /  22.5 °C 70.1 °F /  21.2 °C 29.89in /  1012.1hPa ESE 1.0mph /  1.6km/h 5.0mph /  8km/h 92% 0.00in /  0mm
19:32 72.5 °F /  22.5 °C 70.1 °F /  21.2 °C 29.89in /  1012.1hPa ENE 4.0mph /  6.4km/h 5.0mph /  8km/h 92% 0.00in /  0mm
19:37 72.5 °F /  22.5 °C 70.1 °F /  21.2 °C 29.89in /  1012.1hPa SE 2.0mph /  3.2km/h 6.0mph /  9.7km/h 92% 0.00in /  0mm
19:42 72.5 °F /  22.5 °C 70.1 °F /  21.2 °C 29.89in /  1012.1hPa East 5.0mph /  8km/h 7.0mph /  11.3km/h 92% 0.00in /  0mm
19:47 72.5 °F /  22.5 °C 70.1 °F /  21.2 °C 29.90in /  1012.4hPa East 3.0mph /  4.8km/h 4.0mph /  6.4km/h 92% 0.00in /  0mm
19:52 72.5 °F /  22.5 °C 70.1 °F /  21.2 °C 29.90in /  1012.4hPa East 2.0mph /  3.2km/h 4.0mph /  6.4km/h 92% 0.00in /  0mm
19:57 72.4 °F /  22.4 °C 69.9 °F /  21.1 °C 29.90in /  1012.4hPa ESE 4.0mph /  6.4km/h 4.0mph /  6.4km/h 92% 0.00in /  0mm
20:02 72.3 °F /  22.4 °C 69.8 °F /  21 °C 29.90in /  1012.4hPa East 2.0mph /  3.2km/h 4.0mph /  6.4km/h 92% 0.00in /  0mm
20:07 72.2 °F /  22.3 °C 69.8 °F /  21 °C 29.90in /  1012.4hPa SE 4.0mph /  6.4km/h 4.0mph /  6.4km/h 92% 0.00in /  0mm
20:12 72.2 °F /  22.3 °C 69.8 °F /  21 °C 29.90in /  1012.4hPa SE 2.0mph /  3.2km/h 5.0mph /  8km/h 92% 0.00in /  0mm
20:17 72.1 °F /  22.3 °C 69.7 °F /  20.9 °C 29.90in /  1012.4hPa ESE 1.0mph /  1.6km/h 4.0mph /  6.4km/h 92% 0.00in /  0mm
20:22 72.0 °F /  22.2 °C 69.6 °F /  20.9 °C 29.90in /  1012.4hPa ESE 2.0mph /  3.2km/h 3.0mph /  4.8km/h 92% 0.00in /  0mm
20:27 71.9 °F /  22.2 °C 69.4 °F /  20.8 °C 29.90in /  1012.4hPa East 2.0mph /  3.2km/h 3.0mph /  4.8km/h 92% 0.00in /  0mm
20:32 71.8 °F /  22.1 °C 69.3 °F /  20.7 °C 29.90in /  1012.4hPa SSW 2.0mph /  3.2km/h 4.0mph /  6.4km/h 92% 0.00in /  0mm
20:37 70.7 °F /  21.5 °C 67.9 °F /  19.9 °C 29.90in /  1012.4hPa South 2.0mph /  3.2km/h 6.0mph /  9.7km/h 91% 0.00in /  0mm
20:42 70.0 °F /  21.1 °C 67.3 °F /  19.6 °C 29.90in /  1012.4hPa SSW 2.0mph /  3.2km/h 3.0mph /  4.8km/h 91% 0.00in /  0mm
20:47 69.7 °F /  20.9 °C 67.3 °F /  19.6 °C 29.90in /  1012.4hPa SSW 2.0mph /  3.2km/h 3.0mph /  4.8km/h 92% 0.00in /  0mm
20:52 69.4 °F /  20.8 °C 67.0 °F /  19.4 °C 29.90in /  1012.4hPa WSW 2.0mph /  3.2km/h 2.0mph /  3.2km/h 92% 0.00in /  0mm
20:57 69.4 °F /  20.8 °C 67.0 °F /  19.4 °C 29.90in /  1012.4hPa SW 1.0mph /  1.6km/h 3.0mph /  4.8km/h 92% 0.00in /  0mm
21:02 69.3 °F /  20.7 °C 66.9 °F /  19.4 °C 29.90in /  1012.4hPa ESE 2.0mph /  3.2km/h 2.0mph /  3.2km/h 92% 0.00in /  0mm
21:07 69.3 °F /  20.7 °C 66.9 °F /  19.4 °C 29.90in /  1012.4hPa East 2.0mph /  3.2km/h 2.0mph /  3.2km/h 92% 0.00in /  0mm
21:12 69.2 °F /  20.7 °C 66.8 °F /  19.3 °C 29.90in /  1012.4hPa ENE 1.0mph /  1.6km/h 2.0mph /  3.2km/h 92% 0.00in /  0mm
21:17 69.4 °F /  20.8 °C 67.3 °F /  19.6 °C 29.90in /  1012.4hPa East 1.0mph /  1.6km/h 2.0mph /  3.2km/h 93% 0.00in /  0mm
21:22 69.7 °F /  20.9 °C 67.6 °F /  19.8 °C 29.89in /  1012.1hPa ENE 1.0mph /  1.6km/h 2.0mph /  3.2km/h 93% 0.00in /  0mm
21:27 69.9 °F /  21.1 °C 67.8 °F /  19.9 °C 29.89in /  1012.1hPa East 1.0mph /  1.6km/h 2.0mph /  3.2km/h 93% 0.00in /  0mm
21:32 70.2 °F /  21.2 °C 68.1 °F /  20.1 °C 29.89in /  1012.1hPa ESE 2.0mph /  3.2km/h 2.0mph /  3.2km/h 93% 0.00in /  0mm
21:37 70.4 °F /  21.3 °C 68.3 °F /  20.2 °C 29.89in /  1012.1hPa ESE 1.0mph /  1.6km/h 4.0mph /  6.4km/h 93% 0.00in /  0mm
21:42 70.5 °F /  21.4 °C 68.4 °F /  20.2 °C 29.89in /  1012.1hPa ESE 2.0mph /  3.2km/h 3.0mph /  4.8km/h 93% 0.00in /  0mm
21:48 70.6 °F /  21.4 °C 68.5 °F /  20.3 °C 29.89in /  1012.1hPa ESE 3.0mph /  4.8km/h 5.0mph /  8km/h 93% 0.00in /  0mm
21:53 70.6 °F /  21.4 °C 68.5 °F /  20.3 °C 29.89in /  1012.1hPa SE 2.0mph /  3.2km/h 4.0mph /  6.4km/h 93% 0.00in /  0mm
21:58 70.6 °F /  21.4 °C 68.5 °F /  20.3 °C 29.89in /  1012.1hPa East 1.0mph /  1.6km/h 5.0mph /  8km/h 93% 0.00in /  0mm
22:03 70.6 °F /  21.4 °C 68.5 °F /  20.3 °C 29.89in /  1012.1hPa ESE 2.0mph /  3.2km/h 6.0mph /  9.7km/h 93% 0.00in /  0mm
22:08 70.6 °F /  21.4 °C 68.5 °F /  20.3 °C 29.89in /  1012.1hPa ESE 4.0mph /  6.4km/h 6.0mph /  9.7km/h 93% 0.00in /  0mm
22:13 70.6 °F /  21.4 °C 68.5 °F /  20.3 °C 29.89in /  1012.1hPa East 6.0mph /  9.7km/h 7.0mph /  11.3km/h 93% 0.00in /  0mm
22:18 70.5 °F /  21.4 °C 68.4 °F /  20.2 °C 29.89in /  1012.1hPa ESE 2.0mph /  3.2km/h 4.0mph /  6.4km/h 93% 0.00in /  0mm
22:23 70.5 °F /  21.4 °C 68.4 °F /  20.2 °C 29.89in /  1012.1hPa ESE 5.0mph /  8km/h 8.0mph /  12.9km/h 93% 0.00in /  0mm
22:28 70.5 °F /  21.4 °C 68.4 °F /  20.2 °C 29.90in /  1012.4hPa East 5.0mph /  8km/h 5.0mph /  8km/h 93% 0.00in /  0mm
22:33 70.4 °F /  21.3 °C 68.3 °F /  20.2 °C 29.89in /  1012.1hPa ESE 3.0mph /  4.8km/h 6.0mph /  9.7km/h 93% 0.00in /  0mm
22:38 70.4 °F /  21.3 °C 68.3 °F /  20.2 °C 29.90in /  1012.4hPa SE 4.0mph /  6.4km/h 5.0mph /  8km/h 93% 0.00in /  0mm
22:43 70.3 °F /  21.3 °C 68.2 °F /  20.1 °C 29.90in /  1012.4hPa SE 2.0mph /  3.2km/h 5.0mph /  8km/h 93% 0.00in /  0mm
22:48 70.3 °F /  21.3 °C 68.2 °F /  20.1 °C 29.90in /  1012.4hPa ESE 5.0mph /  8km/h 6.0mph /  9.7km/h 93% 0.00in /  0mm
22:53 70.3 °F /  21.3 °C 68.2 °F /  20.1 °C 29.90in /  1012.4hPa SE 2.0mph /  3.2km/h 6.0mph /  9.7km/h 93% 0.00in /  0mm
22:58 70.3 °F /  21.3 °C 68.2 °F /  20.1 °C 29.90in /  1012.4hPa ESE 2.0mph /  3.2km/h 6.0mph /  9.7km/h 93% 0.00in /  0mm
23:03 70.4 °F /  21.3 °C 68.3 °F /  20.2 °C 29.90in /  1012.4hPa SE 3.0mph /  4.8km/h 6.0mph /  9.7km/h 93% 0.00in /  0mm
23:08 70.4 °F /  21.3 °C 68.3 °F /  20.2 °C 29.90in /  1012.4hPa SE 5.0mph /  8km/h 5.0mph /  8km/h 93% 0.00in /  0mm
23:13 70.3 °F /  21.3 °C 68.2 °F /  20.1 °C 29.90in /  1012.4hPa SE 2.0mph /  3.2km/h 6.0mph /  9.7km/h 93% 0.00in /  0mm
23:18 70.3 °F /  21.3 °C 68.2 °F /  20.1 °C 29.90in /  1012.4hPa SE 1.0mph /  1.6km/h 5.0mph /  8km/h 93% 0.00in /  0mm
23:23 70.4 °F /  21.3 °C 68.3 °F /  20.2 °C 29.90in /  1012.4hPa ESE 2.0mph /  3.2km/h 5.0mph /  8km/h 93% 0.00in /  0mm
23:28 70.3 °F /  21.3 °C 68.2 °F /  20.1 °C 29.90in /  1012.4hPa ESE 3.0mph /  4.8km/h 4.0mph /  6.4km/h 93% 0.40in /  10.16mm
23:33 70.3 °F /  21.3 °C 68.2 °F /  20.1 °C 29.90in /  1012.4hPa East 2.0mph /  3.2km/h 4.0mph /  6.4km/h 93% 0.31in /  7.87mm
23:38 70.3 °F /  21.3 °C 68.2 °F /  20.1 °C 29.90in /  1012.4hPa SE 3.0mph /  4.8km/h 3.0mph /  4.8km/h 93% 0.10in /  2.54mm
23:43 70.3 °F /  21.3 °C 68.2 °F /  20.1 °C 29.90in /  1012.4hPa SE 4.0mph /  6.4km/h 6.0mph /  9.7km/h 93% 0.05in /  1.27mm
23:48 70.3 °F /  21.3 °C 68.2 °F /  20.1 °C 29.90in /  1012.4hPa SE 1.0mph /  1.6km/h 6.0mph /  9.7km/h 93% 0.04in /  1.02mm
23:53 70.3 °F /  21.3 °C 68.2 °F /  20.1 °C 29.90in /  1012.4hPa ESE 6.0mph /  9.7km/h 8.0mph /  12.9km/h 93% 0.04in /  1.02mm
23:58 70.3 °F /  21.3 °C 68.2 °F /  20.1 °C 29.90in /  1012.4hPa SE 3.0mph /  4.8km/h 6.0mph /  9.7km/h 93% 0.04in /  1.02mm
Compliments of Weather Underground